This is the latest recevied weather packets stored in our database for station/object KN6ZYR. If no packets are shown the sender has not sent any weather packets the latest 1 day(s).
| Time | Temp. | Humidity | Pressure | Rain* | Wind** | Luminosity | Snow |
|---|---|---|---|---|---|---|---|
| 1778049890 | 10.56° C | 72% | 1020.2 hPa | 0 mm | - | 0 W/m² | - |
| 1778049586 | 10.56° C | 75% | 1020 hPa | 0 mm | - | 0 W/m² | - |
| 1778048981 | 10.56° C | 73% | 1019.9 hPa | 0 mm | - | 0 W/m² | - |
| 1778048375 | 11.11° C | 70% | 1020 hPa | 0 mm | - | 0 W/m² | - |
| 1778048072 | 11.11° C | 70% | 1020.1 hPa | 0 mm | - | 0 W/m² | - |
| 1778047468 | 11.11° C | 70% | 1020.1 hPa | 0 mm | - | 0 W/m² | - |
| 1778046558 | 10.56° C | 78% | 1020 hPa | 0 mm | - | 0 W/m² | - |
| 1778046255 | 10.56° C | 78% | 1019.8 hPa | 0 mm | - | 0 W/m² | - |
| 1778045951 | 10° C | 78% | 1019.8 hPa | 0 mm | - | 0 W/m² | - |
| 1778045650 | 10.56° C | 75% | 1019.6 hPa | 0 mm | - | 0 W/m² | - |
| 1778045348 | 10.56° C | 74% | 1019.7 hPa | 0 mm | - | 0 W/m² | - |
| 1778044744 | 11.11° C | 69% | 1019.7 hPa | 0 mm | - | 0 W/m² | - |
| 1778044440 | 11.67° C | 68% | 1019.3 hPa | 0 mm | - | 0 W/m² | - |
| 1778044137 | 11.67° C | 67% | 1019.6 hPa | 0 mm | - | 0 W/m² | - |
| 1778043228 | 12.78° C | 65% | 1019.5 hPa | 0 mm | - | 0 W/m² | - |
| 1778042925 | 12.22° C | 65% | 1019.5 hPa | 0 mm | - | 0 W/m² | - |
| 1778042623 | 11.67° C | 67% | 1019.2 hPa | 0 mm | - | 0 W/m² | - |
| 1778042017 | 12.22° C | 68% | 1019 hPa | 0 mm | - | 0 W/m² | - |
| 1778041715 | 12.78° C | 67% | 1019 hPa | 0 mm | - | 0 W/m² | - |
| 1778041414 | 12.78° C | 67% | 1019 hPa | 0 mm | - | 0 W/m² | - |
| 1778040809 | 12.78° C | 64% | 1018.8 hPa | 0 mm | - | 0 W/m² | - |
| 1778040506 | 12.78° C | 63% | 1018.8 hPa | 0 mm | - | 0 W/m² | - |
| 1778040203 | 12.78° C | 66% | 1018.7 hPa | 0 mm | - | 0 W/m² | - |
| 1778039597 | 12.78° C | 65% | 1018.4 hPa | 0 mm | - | 0 W/m² | - |
| 1778039294 | 13.33° C | 64% | 1018.4 hPa | 0 mm | - | 0 W/m² | - |
* Rain latest hour (hover to see other rain measurements)
** Current wind speed in m/s (hover to see current wind gust speed)